sensor_id;sensor_type;location;lat;lon;timestamp;P1;durP1;ratioP1;P2;durP2;ratioP2
20896;SDS011;10608;42.600;23.398;2023-12-14T00:01:13;32.60;;;30.17;;
20896;SDS011;10608;42.600;23.398;2023-12-14T00:03:38;30.07;;;27.97;;
20896;SDS011;10608;42.600;23.398;2023-12-14T00:06:06;29.07;;;26.83;;
20896;SDS011;10608;42.600;23.398;2023-12-14T00:08:31;28.73;;;26.23;;
20896;SDS011;10608;42.600;23.398;2023-12-14T00:10:56;30.30;;;28.07;;
20896;SDS011;10608;42.600;23.398;2023-12-14T00:13:21;30.47;;;28.17;;
20896;SDS011;10608;42.600;23.398;2023-12-14T00:15:47;31.07;;;28.70;;
20896;SDS011;10608;42.600;23.398;2023-12-14T00:18:14;33.57;;;30.50;;
20896;SDS011;10608;42.600;23.398;2023-12-14T00:20:39;31.57;;;28.97;;
20896;SDS011;10608;42.600;23.398;2023-12-14T00:23:04;31.70;;;29.37;;
20896;SDS011;10608;42.600;23.398;2023-12-14T00:25:30;33.63;;;31.13;;
20896;SDS011;10608;42.600;23.398;2023-12-14T00:27:55;34.00;;;31.40;;
20896;SDS011;10608;42.600;23.398;2023-12-14T00:30:20;33.47;;;30.97;;
20896;SDS011;10608;42.600;23.398;2023-12-14T00:32:45;28.57;;;26.47;;
20896;SDS011;10608;42.600;23.398;2023-12-14T00:35:11;27.40;;;24.80;;
20896;SDS011;10608;42.600;23.398;2023-12-14T00:37:36;26.40;;;24.33;;
20896;SDS011;10608;42.600;23.398;2023-12-14T00:40:01;26.63;;;24.53;;
20896;SDS011;10608;42.600;23.398;2023-12-14T00:42:27;26.43;;;24.47;;
20896;SDS011;10608;42.600;23.398;2023-12-14T00:44:52;27.33;;;25.03;;
20896;SDS011;10608;42.600;23.398;2023-12-14T00:47:17;26.13;;;24.03;;
20896;SDS011;10608;42.600;23.398;2023-12-14T00:49:42;34.37;;;32.07;;
20896;SDS011;10608;42.600;23.398;2023-12-14T00:52:08;29.60;;;27.43;;
20896;SDS011;10608;42.600;23.398;2023-12-14T00:54:33;28.23;;;26.03;;
20896;SDS011;10608;42.600;23.398;2023-12-14T00:56:58;27.33;;;25.47;;
20896;SDS011;10608;42.600;23.398;2023-12-14T00:59:23;30.97;;;28.33;;
20896;SDS011;10608;42.600;23.398;2023-12-14T01:01:49;33.53;;;30.87;;
20896;SDS011;10608;42.600;23.398;2023-12-14T01:04:14;28.93;;;26.97;;
20896;SDS011;10608;42.600;23.398;2023-12-14T01:06:39;33.37;;;30.93;;
20896;SDS011;10608;42.600;23.398;2023-12-14T01:09:04;30.80;;;28.50;;
20896;SDS011;10608;42.600;23.398;2023-12-14T01:11:29;27.43;;;25.27;;
20896;SDS011;10608;42.600;23.398;2023-12-14T01:13:55;27.00;;;24.87;;
20896;SDS011;10608;42.600;23.398;2023-12-14T01:16:20;28.53;;;26.37;;
20896;SDS011;10608;42.600;23.398;2023-12-14T01:18:45;31.53;;;29.43;;
20896;SDS011;10608;42.600;23.398;2023-12-14T01:21:10;36.83;;;34.37;;
20896;SDS011;10608;42.600;23.398;2023-12-14T01:23:36;36.17;;;33.97;;
20896;SDS011;10608;42.600;23.398;2023-12-14T01:26:01;34.97;;;32.70;;
20896;SDS011;10608;42.600;23.398;2023-12-14T01:28:26;36.43;;;33.97;;
20896;SDS011;10608;42.600;23.398;2023-12-14T01:30:52;39.83;;;36.73;;
20896;SDS011;10608;42.600;23.398;2023-12-14T01:33:17;37.43;;;34.73;;
20896;SDS011;10608;42.600;23.398;2023-12-14T01:35:43;33.40;;;31.07;;
20896;SDS011;10608;42.600;23.398;2023-12-14T01:38:08;33.80;;;31.10;;
20896;SDS011;10608;42.600;23.398;2023-12-14T01:40:33;34.67;;;32.00;;
20896;SDS011;10608;42.600;23.398;2023-12-14T01:43:08;35.63;;;32.53;;
20896;SDS011;10608;42.600;23.398;2023-12-14T01:45:34;34.37;;;31.77;;
20896;SDS011;10608;42.600;23.398;2023-12-14T01:47:59;34.07;;;31.50;;
20896;SDS011;10608;42.600;23.398;2023-12-14T01:50:24;32.83;;;30.17;;
20896;SDS011;10608;42.600;23.398;2023-12-14T01:52:49;37.47;;;34.27;;
20896;SDS011;10608;42.600;23.398;2023-12-14T01:55:15;34.37;;;31.93;;
20896;SDS011;10608;42.600;23.398;2023-12-14T01:57:40;33.87;;;31.40;;
20896;SDS011;10608;42.600;23.398;2023-12-14T02:00:05;30.87;;;28.47;;
20896;SDS011;10608;42.600;23.398;2023-12-14T02:02:31;28.80;;;26.53;;
20896;SDS011;10608;42.600;23.398;2023-12-14T02:04:56;28.53;;;25.80;;
20896;SDS011;10608;42.600;23.398;2023-12-14T02:07:21;29.97;;;27.77;;
20896;SDS011;10608;42.600;23.398;2023-12-14T02:09:46;33.43;;;30.93;;
20896;SDS011;10608;42.600;23.398;2023-12-14T02:12:12;34.23;;;31.80;;
20896;SDS011;10608;42.600;23.398;2023-12-14T02:14:37;35.37;;;32.77;;
20896;SDS011;10608;42.600;23.398;2023-12-14T02:17:02;37.03;;;34.60;;
20896;SDS011;10608;42.600;23.398;2023-12-14T02:19:27;37.17;;;34.47;;
20896;SDS011;10608;42.600;23.398;2023-12-14T02:21:53;35.23;;;33.00;;
20896;SDS011;10608;42.600;23.398;2023-12-14T02:24:18;32.47;;;30.07;;
20896;SDS011;10608;42.600;23.398;2023-12-14T02:26:43;35.17;;;32.40;;
20896;SDS011;10608;42.600;23.398;2023-12-14T02:29:08;31.63;;;29.40;;
20896;SDS011;10608;42.600;23.398;2023-12-14T02:31:34;30.80;;;28.60;;
20896;SDS011;10608;42.600;23.398;2023-12-14T02:33:59;34.67;;;32.37;;
20896;SDS011;10608;42.600;23.398;2023-12-14T02:36:24;31.63;;;29.57;;
20896;SDS011;10608;42.600;23.398;2023-12-14T02:38:49;29.00;;;26.67;;
20896;SDS011;10608;42.600;23.398;2023-12-14T02:41:15;25.83;;;24.03;;
20896;SDS011;10608;42.600;23.398;2023-12-14T02:43:40;26.87;;;24.87;;
20896;SDS011;10608;42.600;23.398;2023-12-14T02:46:05;28.27;;;26.27;;
20896;SDS011;10608;42.600;23.398;2023-12-14T02:48:31;34.70;;;32.23;;
20896;SDS011;10608;42.600;23.398;2023-12-14T02:50:56;38.43;;;35.97;;
20896;SDS011;10608;42.600;23.398;2023-12-14T02:53:21;32.63;;;30.40;;
20896;SDS011;10608;42.600;23.398;2023-12-14T02:55:47;28.87;;;26.87;;
20896;SDS011;10608;42.600;23.398;2023-12-14T02:58:12;29.93;;;27.67;;
20896;SDS011;10608;42.600;23.398;2023-12-14T03:00:37;27.40;;;25.30;;
20896;SDS011;10608;42.600;23.398;2023-12-14T03:03:02;26.23;;;24.23;;
20896;SDS011;10608;42.600;23.398;2023-12-14T03:05:28;29.20;;;27.00;;
20896;SDS011;10608;42.600;23.398;2023-12-14T03:07:53;31.67;;;29.33;;
20896;SDS011;10608;42.600;23.398;2023-12-14T03:10:18;32.73;;;30.23;;
20896;SDS011;10608;42.600;23.398;2023-12-14T03:12:43;32.53;;;30.00;;
20896;SDS011;10608;42.600;23.398;2023-12-14T03:15:09;30.30;;;27.80;;
20896;SDS011;10608;42.600;23.398;2023-12-14T03:17:34;30.70;;;28.40;;
20896;SDS011;10608;42.600;23.398;2023-12-14T03:19:59;29.60;;;27.63;;
20896;SDS011;10608;42.600;23.398;2023-12-14T03:22:25;28.00;;;26.03;;
20896;SDS011;10608;42.600;23.398;2023-12-14T03:24:50;26.70;;;24.83;;
20896;SDS011;10608;42.600;23.398;2023-12-14T03:27:15;27.40;;;25.27;;
20896;SDS011;10608;42.600;23.398;2023-12-14T03:29:40;24.13;;;22.33;;
20896;SDS011;10608;42.600;23.398;2023-12-14T03:32:06;23.50;;;21.90;;
20896;SDS011;10608;42.600;23.398;2023-12-14T03:34:31;25.87;;;24.10;;
20896;SDS011;10608;42.600;23.398;2023-12-14T03:36:56;22.37;;;20.57;;
20896;SDS011;10608;42.600;23.398;2023-12-14T03:39:21;25.63;;;23.83;;
20896;SDS011;10608;42.600;23.398;2023-12-14T03:41:47;26.17;;;24.27;;
20896;SDS011;10608;42.600;23.398;2023-12-14T03:44:12;27.70;;;25.47;;
20896;SDS011;10608;42.600;23.398;2023-12-14T03:46:37;26.83;;;24.93;;
20896;SDS011;10608;42.600;23.398;2023-12-14T03:49:02;24.07;;;22.47;;
20896;SDS011;10608;42.600;23.398;2023-12-14T03:51:28;31.23;;;29.13;;
20896;SDS011;10608;42.600;23.398;2023-12-14T03:53:54;32.70;;;30.57;;
20896;SDS011;10608;42.600;23.398;2023-12-14T03:56:19;31.23;;;29.03;;
20896;SDS011;10608;42.600;23.398;2023-12-14T03:58:44;34.80;;;32.53;;
20896;SDS011;10608;42.600;23.398;2023-12-14T04:01:16;29.17;;;27.23;;
20896;SDS011;10608;42.600;23.398;2023-12-14T04:03:41;27.47;;;25.63;;
20896;SDS011;10608;42.600;23.398;2023-12-14T04:06:07;27.20;;;25.20;;
20896;SDS011;10608;42.600;23.398;2023-12-14T04:08:32;24.33;;;22.80;;
20896;SDS011;10608;42.600;23.398;2023-12-14T04:10:57;25.77;;;24.10;;
20896;SDS011;10608;42.600;23.398;2023-12-14T04:13:22;26.17;;;24.27;;
20896;SDS011;10608;42.600;23.398;2023-12-14T04:15:47;27.63;;;25.83;;
20896;SDS011;10608;42.600;23.398;2023-12-14T04:18:13;27.20;;;25.37;;
20896;SDS011;10608;42.600;23.398;2023-12-14T04:20:38;26.43;;;24.37;;
20896;SDS011;10608;42.600;23.398;2023-12-14T04:23:03;23.67;;;21.97;;
20896;SDS011;10608;42.600;23.398;2023-12-14T04:25:28;25.13;;;23.43;;
20896;SDS011;10608;42.600;23.398;2023-12-14T04:27:54;25.67;;;23.47;;
20896;SDS011;10608;42.600;23.398;2023-12-14T04:30:19;27.37;;;25.50;;
20896;SDS011;10608;42.600;23.398;2023-12-14T04:32:44;27.77;;;25.97;;
20896;SDS011;10608;42.600;23.398;2023-12-14T04:35:11;26.47;;;24.67;;
20896;SDS011;10608;42.600;23.398;2023-12-14T04:37:36;28.20;;;25.90;;
20896;SDS011;10608;42.600;23.398;2023-12-14T04:40:02;28.33;;;26.53;;
20896;SDS011;10608;42.600;23.398;2023-12-14T04:42:28;32.53;;;30.67;;
20896;SDS011;10608;42.600;23.398;2023-12-14T04:44:53;29.47;;;27.70;;
20896;SDS011;10608;42.600;23.398;2023-12-14T04:47:18;29.87;;;28.10;;
20896;SDS011;10608;42.600;23.398;2023-12-14T04:49:43;27.50;;;25.70;;
20896;SDS011;10608;42.600;23.398;2023-12-14T04:52:09;25.63;;;24.10;;
20896;SDS011;10608;42.600;23.398;2023-12-14T04:54:34;28.73;;;27.03;;
20896;SDS011;10608;42.600;23.398;2023-12-14T04:57:05;27.53;;;25.77;;
20896;SDS011;10608;42.600;23.398;2023-12-14T04:59:30;30.50;;;28.60;;
20896;SDS011;10608;42.600;23.398;2023-12-14T05:01:55;28.73;;;26.80;;
20896;SDS011;10608;42.600;23.398;2023-12-14T05:04:20;26.20;;;24.50;;
20896;SDS011;10608;42.600;23.398;2023-12-14T05:06:46;28.20;;;26.43;;
20896;SDS011;10608;42.600;23.398;2023-12-14T05:09:11;29.07;;;27.17;;
20896;SDS011;10608;42.600;23.398;2023-12-14T05:11:36;28.87;;;27.07;;
20896;SDS011;10608;42.600;23.398;2023-12-14T05:14:01;30.23;;;28.43;;
20896;SDS011;10608;42.600;23.398;2023-12-14T05:16:27;32.80;;;30.70;;
20896;SDS011;10608;42.600;23.398;2023-12-14T05:18:52;30.33;;;28.33;;
20896;SDS011;10608;42.600;23.398;2023-12-14T05:21:18;30.53;;;28.63;;
20896;SDS011;10608;42.600;23.398;2023-12-14T05:23:43;29.83;;;27.70;;
20896;SDS011;10608;42.600;23.398;2023-12-14T05:26:08;26.77;;;24.30;;
20896;SDS011;10608;42.600;23.398;2023-12-14T05:28:34;26.77;;;24.93;;
20896;SDS011;10608;42.600;23.398;2023-12-14T05:31:00;26.57;;;24.93;;
20896;SDS011;10608;42.600;23.398;2023-12-14T05:33:25;28.33;;;26.37;;
20896;SDS011;10608;42.600;23.398;2023-12-14T05:35:50;26.93;;;24.97;;
20896;SDS011;10608;42.600;23.398;2023-12-14T05:38:15;28.23;;;26.63;;
20896;SDS011;10608;42.600;23.398;2023-12-14T05:40:41;28.67;;;26.43;;
20896;SDS011;10608;42.600;23.398;2023-12-14T05:43:07;36.97;;;35.20;;
20896;SDS011;10608;42.600;23.398;2023-12-14T05:45:32;34.40;;;32.43;;
20896;SDS011;10608;42.600;23.398;2023-12-14T05:47:57;24.57;;;23.27;;
20896;SDS011;10608;42.600;23.398;2023-12-14T05:50:22;26.23;;;24.67;;
20896;SDS011;10608;42.600;23.398;2023-12-14T05:52:48;25.03;;;23.50;;
20896;SDS011;10608;42.600;23.398;2023-12-14T05:55:13;26.17;;;24.57;;
20896;SDS011;10608;42.600;23.398;2023-12-14T05:57:38;28.77;;;27.17;;
20896;SDS011;10608;42.600;23.398;2023-12-14T06:00:04;25.60;;;24.10;;
20896;SDS011;10608;42.600;23.398;2023-12-14T06:02:30;22.13;;;20.77;;
20896;SDS011;10608;42.600;23.398;2023-12-14T06:04:57;22.87;;;21.37;;
20896;SDS011;10608;42.600;23.398;2023-12-14T06:07:23;22.37;;;20.87;;
20896;SDS011;10608;42.600;23.398;2023-12-14T06:09:48;24.50;;;22.60;;
20896;SDS011;10608;42.600;23.398;2023-12-14T06:12:13;22.37;;;20.97;;
20896;SDS011;10608;42.600;23.398;2023-12-14T06:14:39;20.77;;;19.33;;
20896;SDS011;10608;42.600;23.398;2023-12-14T06:17:04;24.20;;;21.87;;
20896;SDS011;10608;42.600;23.398;2023-12-14T06:19:29;23.20;;;21.43;;
20896;SDS011;10608;42.600;23.398;2023-12-14T06:21:54;22.10;;;20.40;;
20896;SDS011;10608;42.600;23.398;2023-12-14T06:24:20;23.30;;;21.53;;
20896;SDS011;10608;42.600;23.398;2023-12-14T06:26:47;22.47;;;20.70;;
20896;SDS011;10608;42.600;23.398;2023-12-14T06:29:12;22.57;;;21.00;;
20896;SDS011;10608;42.600;23.398;2023-12-14T06:31:38;21.87;;;20.40;;
20896;SDS011;10608;42.600;23.398;2023-12-14T06:34:03;23.20;;;21.63;;
20896;SDS011;10608;42.600;23.398;2023-12-14T06:36:29;24.10;;;22.23;;
20896;SDS011;10608;42.600;23.398;2023-12-14T06:38:55;25.83;;;24.00;;
20896;SDS011;10608;42.600;23.398;2023-12-14T06:41:21;27.30;;;25.50;;
20896;SDS011;10608;42.600;23.398;2023-12-14T06:43:46;29.80;;;27.90;;
20896;SDS011;10608;42.600;23.398;2023-12-14T06:46:11;36.40;;;33.87;;
20896;SDS011;10608;42.600;23.398;2023-12-14T06:48:37;35.83;;;33.17;;
20896;SDS011;10608;42.600;23.398;2023-12-14T06:51:02;37.67;;;35.37;;
20896;SDS011;10608;42.600;23.398;2023-12-14T06:53:27;35.30;;;33.07;;
20896;SDS011;10608;42.600;23.398;2023-12-14T06:55:52;27.83;;;25.93;;
20896;SDS011;10608;42.600;23.398;2023-12-14T06:58:18;29.23;;;27.23;;
20896;SDS011;10608;42.600;23.398;2023-12-14T07:00:43;28.63;;;26.47;;
20896;SDS011;10608;42.600;23.398;2023-12-14T07:03:08;26.43;;;24.60;;
20896;SDS011;10608;42.600;23.398;2023-12-14T07:05:33;25.03;;;23.03;;
20896;SDS011;10608;42.600;23.398;2023-12-14T07:07:59;24.20;;;22.47;;
20896;SDS011;10608;42.600;23.398;2023-12-14T07:10:24;24.57;;;22.53;;
20896;SDS011;10608;42.600;23.398;2023-12-14T07:12:49;29.07;;;26.97;;
20896;SDS011;10608;42.600;23.398;2023-12-14T07:15:15;29.50;;;27.43;;
20896;SDS011;10608;42.600;23.398;2023-12-14T07:17:41;32.20;;;30.23;;
20896;SDS011;10608;42.600;23.398;2023-12-14T07:20:06;39.70;;;37.17;;
20896;SDS011;10608;42.600;23.398;2023-12-14T07:22:32;172.30;;;84.37;;
20896;SDS011;10608;42.600;23.398;2023-12-14T07:24:57;35.67;;;33.30;;
20896;SDS011;10608;42.600;23.398;2023-12-14T07:27:22;33.27;;;30.83;;
20896;SDS011;10608;42.600;23.398;2023-12-14T07:29:47;33.40;;;30.80;;
20896;SDS011;10608;42.600;23.398;2023-12-14T07:32:13;31.53;;;29.33;;
20896;SDS011;10608;42.600;23.398;2023-12-14T07:34:38;24.27;;;22.53;;
20896;SDS011;10608;42.600;23.398;2023-12-14T07:37:03;23.27;;;21.30;;
20896;SDS011;10608;42.600;23.398;2023-12-14T07:39:28;21.97;;;20.03;;
20896;SDS011;10608;42.600;23.398;2023-12-14T07:41:54;21.23;;;19.70;;
20896;SDS011;10608;42.600;23.398;2023-12-14T07:44:19;24.83;;;23.23;;
20896;SDS011;10608;42.600;23.398;2023-12-14T07:46:45;21.93;;;20.40;;
20896;SDS011;10608;42.600;23.398;2023-12-14T07:49:10;21.57;;;19.73;;
20896;SDS011;10608;42.600;23.398;2023-12-14T07:51:35;29.07;;;25.93;;
20896;SDS011;10608;42.600;23.398;2023-12-14T07:54:01;19.53;;;17.90;;
20896;SDS011;10608;42.600;23.398;2023-12-14T07:56:28;20.20;;;18.47;;
20896;SDS011;10608;42.600;23.398;2023-12-14T07:58:53;22.27;;;20.23;;
20896;SDS011;10608;42.600;23.398;2023-12-14T08:01:19;18.87;;;17.30;;
20896;SDS011;10608;42.600;23.398;2023-12-14T08:03:45;20.70;;;19.30;;
20896;SDS011;10608;42.600;23.398;2023-12-14T08:06:11;19.90;;;18.63;;
20896;SDS011;10608;42.600;23.398;2023-12-14T08:08:36;21.37;;;19.90;;
20896;SDS011;10608;42.600;23.398;2023-12-14T08:11:03;25.37;;;23.77;;
20896;SDS011;10608;42.600;23.398;2023-12-14T08:13:28;27.47;;;25.57;;
20896;SDS011;10608;42.600;23.398;2023-12-14T08:15:53;19.00;;;17.60;;
20896;SDS011;10608;42.600;23.398;2023-12-14T08:18:18;16.97;;;15.67;;
20896;SDS011;10608;42.600;23.398;2023-12-14T08:20:44;18.47;;;16.80;;
20896;SDS011;10608;42.600;23.398;2023-12-14T08:23:09;16.20;;;14.77;;
20896;SDS011;10608;42.600;23.398;2023-12-14T08:25:34;17.70;;;16.10;;
20896;SDS011;10608;42.600;23.398;2023-12-14T08:27:59;17.97;;;16.27;;
20896;SDS011;10608;42.600;23.398;2023-12-14T08:30:24;19.87;;;18.17;;
20896;SDS011;10608;42.600;23.398;2023-12-14T08:32:50;19.90;;;18.37;;
20896;SDS011;10608;42.600;23.398;2023-12-14T08:35:15;24.00;;;22.10;;
20896;SDS011;10608;42.600;23.398;2023-12-14T08:37:40;18.20;;;16.63;;
20896;SDS011;10608;42.600;23.398;2023-12-14T08:40:06;18.30;;;17.00;;
20896;SDS011;10608;42.600;23.398;2023-12-14T08:42:32;18.73;;;17.23;;
20896;SDS011;10608;42.600;23.398;2023-12-14T08:44:57;16.67;;;15.57;;
20896;SDS011;10608;42.600;23.398;2023-12-14T08:47:23;18.50;;;17.10;;
20896;SDS011;10608;42.600;23.398;2023-12-14T08:49:48;22.97;;;21.50;;
20896;SDS011;10608;42.600;23.398;2023-12-14T08:52:13;22.87;;;21.23;;
20896;SDS011;10608;42.600;23.398;2023-12-14T08:54:39;19.67;;;18.03;;
20896;SDS011;10608;42.600;23.398;2023-12-14T08:57:04;21.13;;;18.73;;
20896;SDS011;10608;42.600;23.398;2023-12-14T08:59:30;18.60;;;17.30;;
20896;SDS011;10608;42.600;23.398;2023-12-14T09:01:55;20.00;;;18.70;;
20896;SDS011;10608;42.600;23.398;2023-12-14T09:04:20;19.83;;;18.33;;
20896;SDS011;10608;42.600;23.398;2023-12-14T09:06:46;19.67;;;18.37;;
20896;SDS011;10608;42.600;23.398;2023-12-14T09:09:11;26.07;;;21.50;;
20896;SDS011;10608;42.600;23.398;2023-12-14T09:11:36;23.00;;;21.00;;
20896;SDS011;10608;42.600;23.398;2023-12-14T09:14:02;25.87;;;23.73;;
20896;SDS011;10608;42.600;23.398;2023-12-14T09:16:27;24.73;;;22.73;;
20896;SDS011;10608;42.600;23.398;2023-12-14T09:18:52;25.63;;;23.50;;
20896;SDS011;10608;42.600;23.398;2023-12-14T09:21:18;25.97;;;23.70;;
20896;SDS011;10608;42.600;23.398;2023-12-14T09:23:43;26.37;;;24.23;;
20896;SDS011;10608;42.600;23.398;2023-12-14T09:26:08;24.37;;;22.17;;
20896;SDS011;10608;42.600;23.398;2023-12-14T09:28:33;23.17;;;20.97;;
20896;SDS011;10608;42.600;23.398;2023-12-14T09:30:59;22.93;;;20.77;;
20896;SDS011;10608;42.600;23.398;2023-12-14T09:33:24;24.80;;;22.30;;
20896;SDS011;10608;42.600;23.398;2023-12-14T09:35:49;23.37;;;21.27;;
20896;SDS011;10608;42.600;23.398;2023-12-14T09:38:14;28.13;;;25.63;;
20896;SDS011;10608;42.600;23.398;2023-12-14T09:40:43;24.57;;;22.50;;
20896;SDS011;10608;42.600;23.398;2023-12-14T09:43:08;24.43;;;22.30;;
20896;SDS011;10608;42.600;23.398;2023-12-14T09:45:34;25.10;;;22.90;;
20896;SDS011;10608;42.600;23.398;2023-12-14T09:48:00;23.13;;;21.13;;
20896;SDS011;10608;42.600;23.398;2023-12-14T09:50:25;21.57;;;19.60;;
20896;SDS011;10608;42.600;23.398;2023-12-14T09:52:51;21.90;;;17.90;;
20896;SDS011;10608;42.600;23.398;2023-12-14T09:55:16;22.37;;;20.53;;
20896;SDS011;10608;42.600;23.398;2023-12-14T09:57:41;22.90;;;21.17;;
20896;SDS011;10608;42.600;23.398;2023-12-14T10:00:07;22.30;;;20.50;;
20896;SDS011;10608;42.600;23.398;2023-12-14T10:02:36;27.70;;;25.63;;
20896;SDS011;10608;42.600;23.398;2023-12-14T10:05:01;24.73;;;22.97;;
20896;SDS011;10608;42.600;23.398;2023-12-14T10:07:26;19.77;;;17.70;;
20896;SDS011;10608;42.600;23.398;2023-12-14T10:09:51;19.57;;;18.07;;
20896;SDS011;10608;42.600;23.398;2023-12-14T10:12:18;21.77;;;20.17;;
20896;SDS011;10608;42.600;23.398;2023-12-14T10:14:43;24.03;;;22.60;;
20896;SDS011;10608;42.600;23.398;2023-12-14T10:17:19;26.50;;;24.27;;
20896;SDS011;10608;42.600;23.398;2023-12-14T10:19:45;22.43;;;20.60;;
20896;SDS011;10608;42.600;23.398;2023-12-14T10:22:11;19.60;;;18.37;;
20896;SDS011;10608;42.600;23.398;2023-12-14T10:24:38;17.63;;;16.63;;
20896;SDS011;10608;42.600;23.398;2023-12-14T10:27:06;18.03;;;16.37;;
20896;SDS011;10608;42.600;23.398;2023-12-14T10:29:35;16.17;;;14.73;;
20896;SDS011;10608;42.600;23.398;2023-12-14T10:32:03;16.33;;;15.10;;
20896;SDS011;10608;42.600;23.398;2023-12-14T10:34:29;14.77;;;13.37;;
20896;SDS011;10608;42.600;23.398;2023-12-14T10:36:54;13.70;;;12.67;;
20896;SDS011;10608;42.600;23.398;2023-12-14T10:39:19;14.97;;;14.17;;
20896;SDS011;10608;42.600;23.398;2023-12-14T10:41:46;14.20;;;13.23;;
20896;SDS011;10608;42.600;23.398;2023-12-14T10:44:13;14.57;;;13.77;;
20896;SDS011;10608;42.600;23.398;2023-12-14T10:46:39;13.70;;;12.63;;
20896;SDS011;10608;42.600;23.398;2023-12-14T10:49:05;13.70;;;12.80;;
20896;SDS011;10608;42.600;23.398;2023-12-14T10:51:31;13.47;;;12.53;;
20896;SDS011;10608;42.600;23.398;2023-12-14T10:53:57;11.60;;;10.83;;
20896;SDS011;10608;42.600;23.398;2023-12-14T10:56:22;14.40;;;13.40;;
20896;SDS011;10608;42.600;23.398;2023-12-14T11:01:14;17.33;;;16.27;;
20896;SDS011;10608;42.600;23.398;2023-12-14T11:03:40;18.03;;;16.53;;
20896;SDS011;10608;42.600;23.398;2023-12-14T11:06:16;18.43;;;16.70;;
20896;SDS011;10608;42.600;23.398;2023-12-14T11:08:45;21.97;;;20.57;;
20896;SDS011;10608;42.600;23.398;2023-12-14T11:11:10;25.47;;;23.60;;
20896;SDS011;10608;42.600;23.398;2023-12-14T11:13:37;27.57;;;25.87;;
20896;SDS011;10608;42.600;23.398;2023-12-14T11:16:04;25.53;;;23.63;;
20896;SDS011;10608;42.600;23.398;2023-12-14T11:18:29;19.93;;;18.63;;
20896;SDS011;10608;42.600;23.398;2023-12-14T11:20:58;19.63;;;18.33;;
20896;SDS011;10608;42.600;23.398;2023-12-14T11:25:53;18.53;;;17.23;;
20896;SDS011;10608;42.600;23.398;2023-12-14T11:28:19;21.30;;;19.77;;
20896;SDS011;10608;42.600;23.398;2023-12-14T11:30:44;20.23;;;18.83;;
20896;SDS011;10608;42.600;23.398;2023-12-14T11:33:13;17.90;;;16.70;;
20896;SDS011;10608;42.600;23.398;2023-12-14T11:35:38;18.63;;;17.67;;
20896;SDS011;10608;42.600;23.398;2023-12-14T11:38:04;17.27;;;16.00;;
20896;SDS011;10608;42.600;23.398;2023-12-14T11:40:35;19.07;;;18.00;;
20896;SDS011;10608;42.600;23.398;2023-12-14T11:43:01;10.80;;;10.20;;
20896;SDS011;10608;42.600;23.398;2023-12-14T11:45:28;11.00;;;10.40;;
20896;SDS011;10608;42.600;23.398;2023-12-14T11:47:53;11.60;;;11.00;;
20896;SDS011;10608;42.600;23.398;2023-12-14T11:50:18;11.57;;;10.83;;
20896;SDS011;10608;42.600;23.398;2023-12-14T11:52:44;12.30;;;11.30;;
20896;SDS011;10608;42.600;23.398;2023-12-14T11:55:12;11.40;;;10.70;;
20896;SDS011;10608;42.600;23.398;2023-12-14T11:57:39;11.23;;;10.63;;
20896;SDS011;10608;42.600;23.398;2023-12-14T12:00:05;9.77;;;9.17;;
20896;SDS011;10608;42.600;23.398;2023-12-14T12:02:32;11.77;;;10.83;;
20896;SDS011;10608;42.600;23.398;2023-12-14T12:04:57;10.37;;;9.87;;
20896;SDS011;10608;42.600;23.398;2023-12-14T12:07:22;10.43;;;10.00;;
20896;SDS011;10608;42.600;23.398;2023-12-14T12:09:48;10.80;;;10.20;;
20896;SDS011;10608;42.600;23.398;2023-12-14T12:12:13;10.80;;;10.27;;
20896;SDS011;10608;42.600;23.398;2023-12-14T12:14:39;10.57;;;9.77;;
20896;SDS011;10608;42.600;23.398;2023-12-14T12:17:05;14.03;;;13.40;;
20896;SDS011;10608;42.600;23.398;2023-12-14T12:19:34;12.67;;;12.07;;
20896;SDS011;10608;42.600;23.398;2023-12-14T12:21:59;12.63;;;11.80;;
20896;SDS011;10608;42.600;23.398;2023-12-14T12:24:25;10.83;;;10.30;;
20896;SDS011;10608;42.600;23.398;2023-12-14T12:26:50;11.33;;;10.33;;
20896;SDS011;10608;42.600;23.398;2023-12-14T12:29:15;11.10;;;10.60;;
20896;SDS011;10608;42.600;23.398;2023-12-14T12:31:41;13.07;;;12.37;;
20896;SDS011;10608;42.600;23.398;2023-12-14T12:34:07;10.60;;;10.13;;
20896;SDS011;10608;42.600;23.398;2023-12-14T12:36:32;11.03;;;10.57;;
20896;SDS011;10608;42.600;23.398;2023-12-14T12:38:58;11.00;;;10.50;;
20896;SDS011;10608;42.600;23.398;2023-12-14T12:41:23;9.87;;;9.33;;
20896;SDS011;10608;42.600;23.398;2023-12-14T12:43:48;10.73;;;10.23;;
20896;SDS011;10608;42.600;23.398;2023-12-14T12:46:13;11.83;;;11.23;;
20896;SDS011;10608;42.600;23.398;2023-12-14T12:48:38;10.70;;;10.20;;
20896;SDS011;10608;42.600;23.398;2023-12-14T12:51:04;10.90;;;9.87;;
20896;SDS011;10608;42.600;23.398;2023-12-14T12:53:30;10.53;;;9.93;;
20896;SDS011;10608;42.600;23.398;2023-12-14T12:55:55;11.40;;;10.80;;
20896;SDS011;10608;42.600;23.398;2023-12-14T12:58:20;12.40;;;11.60;;
20896;SDS011;10608;42.600;23.398;2023-12-14T13:00:46;12.17;;;11.57;;
20896;SDS011;10608;42.600;23.398;2023-12-14T13:03:11;15.73;;;15.07;;
20896;SDS011;10608;42.600;23.398;2023-12-14T13:05:37;11.23;;;10.60;;
20896;SDS011;10608;42.600;23.398;2023-12-14T13:08:03;11.00;;;10.50;;
20896;SDS011;10608;42.600;23.398;2023-12-14T13:10:28;10.37;;;9.97;;
20896;SDS011;10608;42.600;23.398;2023-12-14T13:12:53;13.00;;;12.10;;
20896;SDS011;10608;42.600;23.398;2023-12-14T13:15:19;10.83;;;10.43;;
20896;SDS011;10608;42.600;23.398;2023-12-14T13:17:44;10.10;;;9.70;;
20896;SDS011;10608;42.600;23.398;2023-12-14T13:20:09;11.30;;;10.80;;
20896;SDS011;10608;42.600;23.398;2023-12-14T13:22:35;11.67;;;11.17;;
20896;SDS011;10608;42.600;23.398;2023-12-14T13:25:00;12.77;;;12.07;;
20896;SDS011;10608;42.600;23.398;2023-12-14T13:27:25;12.23;;;11.63;;
20896;SDS011;10608;42.600;23.398;2023-12-14T13:29:50;11.90;;;11.40;;
20896;SDS011;10608;42.600;23.398;2023-12-14T13:32:16;12.27;;;11.77;;
20896;SDS011;10608;42.600;23.398;2023-12-14T13:34:41;11.40;;;10.90;;
20896;SDS011;10608;42.600;23.398;2023-12-14T13:37:07;12.73;;;12.23;;
20896;SDS011;10608;42.600;23.398;2023-12-14T13:39:34;14.07;;;13.47;;
20896;SDS011;10608;42.600;23.398;2023-12-14T13:42:02;15.03;;;14.43;;
20896;SDS011;10608;42.600;23.398;2023-12-14T13:44:28;15.23;;;14.60;;
20896;SDS011;10608;42.600;23.398;2023-12-14T13:46:53;13.33;;;12.53;;
20896;SDS011;10608;42.600;23.398;2023-12-14T13:49:19;11.40;;;10.90;;
20896;SDS011;10608;42.600;23.398;2023-12-14T13:51:44;11.67;;;11.17;;
20896;SDS011;10608;42.600;23.398;2023-12-14T13:54:09;11.90;;;11.40;;
20896;SDS011;10608;42.600;23.398;2023-12-14T13:56:34;18.37;;;17.57;;
20896;SDS011;10608;42.600;23.398;2023-12-14T13:59:00;11.90;;;11.20;;
20896;SDS011;10608;42.600;23.398;2023-12-14T14:01:25;12.13;;;11.60;;
20896;SDS011;10608;42.600;23.398;2023-12-14T14:03:50;15.03;;;14.23;;